createdAt,value
2023-04-28T00:01:41.788Z,99689.03
2023-04-28T00:04:08.778Z,99693.31
2023-04-28T00:06:35.728Z,99684.06
2023-04-28T00:09:02.459Z,99688.38
2023-04-28T00:11:29.375Z,99686.00
2023-04-28T00:13:56.249Z,99679.41
2023-04-28T00:16:23.122Z,99679.31
2023-04-28T00:18:50.239Z,99675.75
2023-04-28T00:21:17.979Z,99686.00
2023-04-28T00:23:44.683Z,99680.59
2023-04-28T00:26:12.444Z,99671.34
2023-04-28T00:28:40.687Z,99672.72
2023-04-28T00:31:12.548Z,99672.38
2023-04-28T00:33:40.655Z,99674.66
2023-04-28T00:36:07.850Z,99667.41
2023-04-28T00:38:34.916Z,99671.66
2023-04-28T00:41:01.716Z,99673.00
2023-04-28T00:43:28.868Z,99666.88
2023-04-28T00:45:56.200Z,99665.97
2023-04-28T00:48:24.240Z,99660.47
2023-04-28T00:50:51.947Z,99661.22
2023-04-28T00:53:18.665Z,99652.59
2023-04-28T00:55:45.882Z,99653.06
2023-04-28T00:58:12.612Z,99661.03
2023-04-28T01:00:39.470Z,99660.56
2023-04-28T01:03:06.432Z,99661.75
2023-04-28T01:05:35.076Z,99656.78
2023-04-28T01:08:01.718Z,99650.22
2023-04-28T01:10:28.453Z,99650.31
2023-04-28T01:12:56.280Z,99658.44
2023-04-28T01:15:23.010Z,99655.88
2023-04-28T01:17:52.853Z,99656.06
2023-04-28T01:20:19.684Z,99655.97
2023-04-28T01:22:46.430Z,99648.38
2023-04-28T01:25:13.737Z,99648.47
2023-04-28T01:27:40.444Z,99640.31
2023-04-28T01:30:08.698Z,99639.88
2023-04-28T01:32:35.575Z,99639.03
2023-04-28T01:35:02.927Z,99642.03
2023-04-28T01:37:29.619Z,99639.75
2023-04-28T01:39:56.295Z,99629.22
2023-04-28T01:42:23.015Z,99633.72
2023-04-28T01:44:49.713Z,99634.69
2023-04-28T01:47:16.950Z,99632.22
2023-04-28T01:49:43.610Z,99637.19
2023-04-28T01:52:11.884Z,99644.31
2023-04-28T01:54:38.800Z,99637.72
2023-04-28T01:57:06.968Z,99633.59
2023-04-28T01:59:33.762Z,99646.41
2023-04-28T02:02:00.511Z,99650.41
2023-04-28T02:04:27.441Z,99643.63
2023-04-28T02:06:54.401Z,99637.59
2023-04-28T02:09:21.360Z,99640.25
2023-04-28T02:11:48.143Z,99647.59
2023-04-28T02:14:14.921Z,99643.28
2023-04-28T02:16:41.693Z,99636.97
2023-04-28T02:19:08.471Z,99638.44
2023-04-28T02:21:35.176Z,99638.16
2023-04-28T02:24:02.148Z,99638.06
2023-04-28T02:26:31.197Z,99635.56
2023-04-28T02:28:57.957Z,99638.84
2023-04-28T02:31:24.785Z,99640.34
2023-04-28T02:33:54.512Z,99633.09
2023-04-28T02:36:21.894Z,99630.97
2023-04-28T02:38:48.571Z,99645.19
2023-04-28T02:41:15.519Z,99636.28
2023-04-28T02:43:42.499Z,99635.69
2023-04-28T02:46:09.321Z,99629.31
2023-04-28T02:48:37.357Z,99624.78
2023-04-28T02:51:04.207Z,99620.53
2023-04-28T02:53:32.087Z,99612.44
2023-04-28T02:55:59.582Z,99623.03
2023-04-28T02:58:26.955Z,99622.44
2023-04-28T03:00:53.643Z,99623.22
2023-04-28T03:03:20.650Z,99625.22
2023-04-28T03:05:49.770Z,99623.81
2023-04-28T03:08:16.425Z,99613.63
2023-04-28T03:10:43.059Z,99611.97
2023-04-28T03:13:09.775Z,99611.16
2023-04-28T03:15:36.501Z,99608.66
2023-04-28T03:18:03.320Z,99609.88
2023-04-28T03:20:30.144Z,99607.75
2023-04-28T03:22:56.854Z,99606.84
2023-04-28T03:25:23.832Z,99602.75
2023-04-28T03:27:51.642Z,99606.66
2023-04-28T03:30:18.391Z,99587.00
2023-04-28T03:32:46.464Z,99587.41
2023-04-28T03:35:13.745Z,99584.81
2023-04-28T03:37:41.149Z,99584.81
2023-04-28T03:40:08.761Z,99582.31
2023-04-28T03:42:54.385Z,99586.94
2023-04-28T03:45:28.784Z,99587.31
2023-04-28T03:47:55.554Z,99590.78
2023-04-28T03:50:23.249Z,99595.41
2023-04-28T03:52:50.963Z,99603.34
2023-04-28T03:55:17.855Z,99602.31
2023-04-28T03:57:44.566Z,99604.78
2023-04-28T04:00:11.856Z,99607.44
2023-04-28T04:02:44.675Z,99609.88
2023-04-28T04:05:11.758Z,99603.84
2023-04-28T04:07:38.540Z,99607.16
2023-04-28T04:10:06.176Z,99607.44
2023-04-28T04:12:34.622Z,99596.06
2023-04-28T04:15:01.464Z,99603.97
2023-04-28T04:17:28.331Z,99602.25
2023-04-28T04:19:55.130Z,99594.22
2023-04-28T04:22:21.867Z,99595.25
2023-04-28T04:24:48.595Z,99588.56
2023-04-28T04:27:15.249Z,99589.44
2023-04-28T04:29:42.274Z,99596.19
2023-04-28T04:32:13.207Z,99589.06
2023-04-28T04:34:41.526Z,99597.22
2023-04-28T04:37:09.611Z,99610.03
2023-04-28T04:39:41.959Z,99608.75
2023-04-28T04:42:23.253Z,99608.09
2023-04-28T04:45:07.065Z,99607.16
2023-04-28T04:47:33.840Z,99598.50
2023-04-28T04:50:00.851Z,99601.34
2023-04-28T04:52:29.174Z,99593.75
2023-04-28T04:54:56.615Z,99576.94
2023-04-28T04:57:24.466Z,99578.78
2023-04-28T05:00:05.920Z,99571.44
2023-04-28T05:02:32.900Z,99569.34
2023-04-28T05:05:12.351Z,99569.91
2023-04-28T05:07:48.723Z,99580.09
2023-04-28T05:10:15.550Z,99575.41
2023-04-28T05:12:46.224Z,99572.22
2023-04-28T05:15:16.744Z,99569.41
2023-04-28T05:17:51.879Z,99568.00
2023-04-28T05:20:18.740Z,99569.44
2023-04-28T05:22:45.437Z,99565.56
2023-04-28T05:25:12.208Z,99567.63
2023-04-28T05:27:40.898Z,99562.31
2023-04-28T05:30:08.682Z,99561.03
2023-04-28T05:32:36.411Z,99557.69
2023-04-28T05:35:03.584Z,99559.47
2023-04-28T05:37:30.424Z,99558.97
2023-04-28T05:39:57.453Z,99560.63
2023-04-28T05:42:24.097Z,99562.53
2023-04-28T05:44:50.962Z,99552.56
2023-04-28T05:47:17.804Z,99554.66
2023-04-28T05:49:44.773Z,99551.50
2023-04-28T05:52:11.577Z,99556.53
2023-04-28T05:54:38.313Z,99559.25
2023-04-28T05:57:05.859Z,99566.31
2023-04-28T05:59:33.174Z,99560.22
2023-04-28T06:02:00.653Z,99548.41
2023-04-28T06:04:27.656Z,99552.53
2023-04-28T06:06:54.700Z,99550.22
2023-04-28T06:09:21.577Z,99553.13
2023-04-28T06:11:50.850Z,99545.31
2023-04-28T06:14:17.886Z,99555.00
2023-04-28T06:16:44.740Z,99555.81
2023-04-28T06:19:11.863Z,99558.94
2023-04-28T06:21:38.596Z,99547.25
2023-04-28T06:24:05.439Z,99563.72
2023-04-28T06:26:32.195Z,99555.88
2023-04-28T06:28:58.880Z,99557.56
2023-04-28T06:31:25.660Z,99545.84
2023-04-28T06:33:53.755Z,99538.44
2023-04-28T06:36:22.753Z,99536.78
2023-04-28T06:38:49.512Z,99540.47
2023-04-28T06:41:16.216Z,99532.00
2023-04-28T06:43:46.527Z,99527.47
2023-04-28T06:46:18.238Z,99530.72
2023-04-28T06:48:45.051Z,99525.84
2023-04-28T06:51:11.745Z,99521.22
2023-04-28T06:53:38.706Z,99514.16
2023-04-28T06:56:10.514Z,99510.56
2023-04-28T06:58:38.137Z,99504.13
2023-04-28T07:01:05.735Z,99508.38
2023-04-28T07:03:32.826Z,99507.63
2023-04-28T07:05:59.880Z,99497.03
2023-04-28T07:08:26.832Z,99503.75
2023-04-28T07:10:53.448Z,99504.75
2023-04-28T07:13:20.236Z,99495.03
2023-04-28T07:15:46.864Z,99482.25
2023-04-28T07:18:13.587Z,99477.44
2023-04-28T07:20:40.299Z,99471.47
2023-04-28T07:23:06.908Z,99456.97
2023-04-28T07:25:33.571Z,99465.56
2023-04-28T07:28:02.829Z,99470.22
2023-04-28T07:30:29.515Z,99464.84
2023-04-28T07:32:56.399Z,99468.38
2023-04-28T07:35:23.745Z,99462.50
2023-04-28T07:37:50.681Z,99458.22
2023-04-28T07:40:17.894Z,99463.53
2023-04-28T07:42:46.071Z,99457.75
2023-04-28T07:45:12.919Z,99467.56
2023-04-28T07:47:39.704Z,99464.69
2023-04-28T07:50:07.676Z,99462.81
2023-04-28T07:52:34.779Z,99466.06
2023-04-28T07:55:03.037Z,99465.19
2023-04-28T07:57:30.396Z,99467.38
2023-04-28T07:59:57.042Z,99466.53
2023-04-28T08:02:23.868Z,99460.81
2023-04-28T08:04:50.845Z,99464.56
2023-04-28T08:07:17.955Z,99479.28
2023-04-28T08:09:48.406Z,99476.91
2023-04-28T08:12:15.662Z,99471.53
2023-04-28T08:14:42.698Z,99467.50
2023-04-28T08:17:09.445Z,99467.50
2023-04-28T08:19:36.107Z,99458.22
2023-04-28T08:22:06.138Z,99459.31
2023-04-28T08:24:36.631Z,99458.31
2023-04-28T08:27:03.904Z,99448.31
2023-04-28T08:29:31.953Z,99452.41
2023-04-28T08:31:58.882Z,99446.38
2023-04-28T08:34:25.614Z,99435.97
2023-04-28T08:36:52.825Z,99437.09
2023-04-28T08:39:20.742Z,99436.16
2023-04-28T08:41:47.464Z,99437.19
2023-04-28T08:44:14.368Z,99433.38
2023-04-28T08:46:42.254Z,99423.03
2023-04-28T08:49:13.990Z,99428.09
2023-04-28T08:51:57.339Z,99410.13
2023-04-28T08:54:29.975Z,99415.19
2023-04-28T08:56:57.447Z,99412.25
2023-04-28T08:59:24.421Z,99401.72
2023-04-28T09:01:52.185Z,99399.81
2023-04-28T09:04:20.041Z,99394.16
2023-04-28T09:06:47.604Z,99388.28
2023-04-28T09:09:27.545Z,99391.34
2023-04-28T09:12:01.210Z,99390.38
2023-04-28T09:14:29.193Z,99389.91
2023-04-28T09:16:56.142Z,99379.75
2023-04-28T09:19:23.099Z,99384.19
2023-04-28T09:21:57.518Z,99387.97
2023-04-28T09:24:27.581Z,99373.38
2023-04-28T09:26:55.632Z,99376.66
2023-04-28T09:29:22.844Z,99376.97
2023-04-28T09:31:49.980Z,99375.31
2023-04-28T09:34:16.954Z,99365.78
2023-04-28T09:36:43.933Z,99365.06
2023-04-28T09:39:10.671Z,99369.41
2023-04-28T09:41:44.325Z,99370.25
2023-04-28T09:44:15.792Z,99361.53
2023-04-28T09:46:46.714Z,99357.78
2023-04-28T09:49:14.346Z,99350.09
2023-04-28T09:51:41.633Z,99337.59
2023-04-28T09:54:08.418Z,99329.53
2023-04-28T09:56:40.857Z,99325.75
2023-04-28T09:59:08.277Z,99327.31
2023-04-28T10:01:39.016Z,99329.25
2023-04-28T10:04:07.359Z,99332.28
2023-04-28T10:06:35.852Z,99314.47
2023-04-28T10:09:03.324Z,99311.72
2023-04-28T10:11:30.745Z,99306.53
2023-04-28T10:13:57.428Z,99300.25
2023-04-28T10:16:24.663Z,99303.78
2023-04-28T10:18:51.555Z,99302.63
2023-04-28T10:21:19.047Z,99292.28
2023-04-28T10:24:00.180Z,99290.06
2023-04-28T10:26:54.030Z,99289.25
2023-04-28T10:29:25.361Z,99286.03
2023-04-28T10:32:21.175Z,99285.09
2023-04-28T10:34:48.356Z,99280.63
2023-04-28T10:37:15.559Z,99287.84
2023-04-28T10:40:25.019Z,99281.16
2023-04-28T10:42:53.022Z,99274.94
2023-04-28T10:45:56.369Z,99280.13
2023-04-28T10:48:46.579Z,99273.22
2023-04-28T10:51:16.508Z,99259.66
2023-04-28T10:53:46.793Z,99265.47
2023-04-28T10:56:25.517Z,99255.19
2023-04-28T10:58:58.691Z,99256.81
2023-04-28T11:01:30.937Z,99249.09
2023-04-28T11:04:11.441Z,99236.34
2023-04-28T11:06:40.762Z,99240.38
2023-04-28T11:09:19.493Z,99252.13
2023-04-28T11:11:58.619Z,99257.75
2023-04-28T11:14:25.205Z,99251.47
2023-04-28T11:16:52.301Z,99246.31
2023-04-28T11:19:20.379Z,99237.41
2023-04-28T11:21:48.353Z,99230.38
2023-04-28T11:24:15.595Z,99231.66
2023-04-28T11:26:42.461Z,99219.16
2023-04-28T11:29:09.535Z,99216.38
2023-04-28T11:31:36.766Z,99203.38
2023-04-28T11:34:14.617Z,99201.34
2023-04-28T11:36:41.892Z,99201.84
2023-04-28T11:39:10.205Z,99199.22
2023-04-28T11:41:41.738Z,99199.34
2023-04-28T11:44:16.345Z,99202.41
2023-04-28T11:46:50.575Z,99206.94
2023-04-28T11:49:18.756Z,99195.22
2023-04-28T11:51:47.016Z,99200.13
2023-04-28T11:54:15.039Z,99212.72
2023-04-28T11:56:42.839Z,99205.63
2023-04-28T11:59:11.345Z,99204.47
2023-04-28T12:01:49.053Z,99199.84
2023-04-28T12:04:28.194Z,99199.41
2023-04-28T12:07:13.828Z,99197.84
2023-04-28T12:09:43.106Z,99198.47
2023-04-28T12:12:15.482Z,99193.78
2023-04-28T12:14:57.535Z,99194.91
2023-04-28T12:17:35.882Z,99208.94
2023-04-28T12:20:04.767Z,99198.66
2023-04-28T12:22:31.481Z,99211.81
2023-04-28T12:25:06.949Z,99216.59
2023-04-28T12:27:35.758Z,99213.91
2023-04-28T12:30:04.089Z,99207.44
2023-04-28T12:32:38.797Z,99218.19
2023-04-28T12:35:06.169Z,99230.84
2023-04-28T12:37:32.945Z,99219.84
2023-04-28T12:39:59.727Z,99216.56
2023-04-28T12:42:26.979Z,99225.06
2023-04-28T12:44:53.579Z,99218.31
2023-04-28T12:47:20.537Z,99214.75
2023-04-28T12:49:48.940Z,99213.16
2023-04-28T12:52:15.562Z,99217.66
2023-04-28T12:54:47.131Z,99215.19
2023-04-28T12:57:15.042Z,99208.31
2023-04-28T12:59:41.758Z,99204.19
2023-04-28T13:02:08.570Z,99207.00
2023-04-28T13:04:35.414Z,99217.03
2023-04-28T13:07:02.553Z,99208.25
2023-04-28T13:09:29.754Z,99198.78
2023-04-28T13:11:56.951Z,99216.22
2023-04-28T13:14:24.085Z,99193.81
2023-04-28T13:16:51.883Z,99196.84
2023-04-28T13:19:19.054Z,99198.47
2023-04-28T13:21:47.148Z,99193.59
2023-04-28T13:24:16.655Z,99200.38
2023-04-28T13:26:46.678Z,99202.19
2023-04-28T13:29:14.442Z,99199.28
2023-04-28T13:31:41.598Z,99200.03
2023-04-28T13:34:09.683Z,99195.78
2023-04-28T13:36:36.444Z,99194.31
2023-04-28T13:39:03.350Z,99200.41
2023-04-28T13:41:30.024Z,99194.91
2023-04-28T13:43:56.655Z,99191.50
2023-04-28T13:46:23.361Z,99193.22
2023-04-28T13:48:50.579Z,99189.84
2023-04-28T13:51:17.410Z,99191.25
2023-04-28T13:53:44.024Z,99176.44
2023-04-28T13:56:10.938Z,99176.69
2023-04-28T13:58:37.707Z,99174.13
2023-04-28T14:01:04.552Z,99177.28
2023-04-28T14:03:31.359Z,99181.69
2023-04-28T14:05:59.000Z,99178.59
2023-04-28T14:08:27.750Z,99177.03
2023-04-28T14:10:57.207Z,99172.78
2023-04-28T14:13:24.989Z,99162.72
2023-04-28T14:15:59.340Z,99164.91
2023-04-28T14:18:27.415Z,99171.72
2023-04-28T14:20:54.584Z,99171.78
2023-04-28T14:23:22.594Z,99164.31
2023-04-28T14:25:50.169Z,99162.72
2023-04-28T14:28:16.925Z,99155.00
2023-04-28T14:30:43.997Z,99151.41
2023-04-28T14:33:10.859Z,99159.56
2023-04-28T14:35:37.659Z,99165.53
2023-04-28T14:38:04.424Z,99159.06
2023-04-28T14:40:31.386Z,99156.94
2023-04-28T14:42:58.120Z,99156.25
2023-04-28T14:45:25.088Z,99158.22
2023-04-28T14:47:51.942Z,99167.22
2023-04-28T14:50:18.835Z,99167.47
2023-04-28T14:52:45.822Z,99165.09
2023-04-28T14:55:13.702Z,99167.53
2023-04-28T14:57:40.448Z,99170.50
2023-04-28T15:00:08.158Z,99166.22
2023-04-28T15:02:36.298Z,99160.03
2023-04-28T15:05:03.493Z,99153.53
2023-04-28T15:07:31.926Z,99155.69
2023-04-28T15:09:59.643Z,99160.88
2023-04-28T15:12:26.936Z,99154.16
2023-04-28T15:14:53.871Z,99141.72
2023-04-28T15:17:24.366Z,99132.25
2023-04-28T15:19:51.686Z,99125.72
2023-04-28T15:22:18.551Z,99122.75
2023-04-28T15:24:45.249Z,99113.88
2023-04-28T15:27:11.873Z,99093.00
2023-04-28T15:29:38.766Z,99079.78
2023-04-28T15:32:05.702Z,99083.00
2023-04-28T15:34:32.484Z,99106.84
2023-04-28T15:36:59.320Z,99118.50
2023-04-28T15:39:28.522Z,99122.53
2023-04-28T15:41:56.238Z,99119.00
2023-04-28T15:44:23.237Z,99122.84
2023-04-28T15:46:51.835Z,99123.91
2023-04-28T15:49:18.567Z,99123.66
2023-04-28T15:51:45.704Z,99132.84
2023-04-28T15:54:14.657Z,99133.38
2023-04-28T15:56:41.306Z,99124.41
2023-04-28T15:59:10.310Z,99124.16
2023-04-28T16:01:36.987Z,99105.19
2023-04-28T16:04:03.887Z,99110.81
2023-04-28T16:06:31.381Z,99106.50
2023-04-28T16:08:58.060Z,99116.00
2023-04-28T16:11:24.792Z,99106.25
2023-04-28T16:13:51.548Z,99116.28
2023-04-28T16:16:18.211Z,99114.97
2023-04-28T16:18:44.911Z,99118.75
2023-04-28T16:21:12.264Z,99124.47
2023-04-28T16:23:38.985Z,99130.44
2023-04-28T16:26:05.650Z,99132.84
2023-04-28T16:28:32.890Z,99130.13
2023-04-28T16:30:59.587Z,99124.72
2023-04-28T16:33:26.334Z,99124.16
2023-04-28T16:35:57.980Z,99120.09
2023-04-28T16:38:24.721Z,99128.16
2023-04-28T16:40:52.157Z,99114.00
2023-04-28T16:43:18.918Z,99117.28
2023-04-28T16:45:45.643Z,99125.88
2023-04-28T16:48:14.814Z,99116.91
2023-04-28T16:50:41.504Z,99113.59
2023-04-28T16:53:08.277Z,99113.00
2023-04-28T16:55:36.645Z,99118.84
2023-04-28T16:58:03.768Z,99113.47
2023-04-28T17:00:31.046Z,99119.34
2023-04-28T17:02:57.852Z,99115.28
2023-04-28T17:05:24.663Z,99122.47
2023-04-28T17:07:51.361Z,99113.25
2023-04-28T17:10:18.309Z,99112.94
2023-04-28T17:12:45.762Z,99124.53
2023-04-28T17:15:18.590Z,99125.53
2023-04-28T17:17:50.232Z,99122.28
2023-04-28T17:20:18.205Z,99120.78
2023-04-28T17:22:44.853Z,99129.84
2023-04-28T17:25:12.163Z,99119.84
2023-04-28T17:27:39.034Z,99120.63
2023-04-28T17:30:10.372Z,99120.78
2023-04-28T17:32:37.822Z,99118.59
2023-04-28T17:35:07.337Z,99114.53
2023-04-28T17:37:34.925Z,99113.72
2023-04-28T17:40:04.890Z,99112.25
2023-04-28T17:42:32.036Z,99114.84
2023-04-28T17:44:58.898Z,99105.13
2023-04-28T17:47:25.771Z,99111.97
2023-04-28T17:49:52.469Z,99111.84
2023-04-28T17:52:19.140Z,99111.03
2023-04-28T17:54:45.840Z,99108.34
2023-04-28T17:57:13.240Z,99101.31
2023-04-28T17:59:40.664Z,99109.72
2023-04-28T18:02:11.288Z,99108.53
2023-04-28T18:04:38.445Z,99114.84
2023-04-28T18:07:06.465Z,99119.03
2023-04-28T18:09:33.410Z,99115.78
2023-04-28T18:12:02.328Z,99110.31
2023-04-28T18:14:28.974Z,99115.03
2023-04-28T18:16:55.608Z,99111.78
2023-04-28T18:19:22.459Z,99112.59
2023-04-28T18:21:49.172Z,99113.91
2023-04-28T18:24:15.832Z,99102.22
2023-04-28T18:26:42.692Z,99094.94
2023-04-28T18:29:09.379Z,99083.63
2023-04-28T18:31:36.115Z,99088.19
2023-04-28T18:34:03.957Z,99097.31
2023-04-28T18:36:33.521Z,99101.88
2023-04-28T18:39:02.435Z,99104.16
2023-04-28T18:41:29.080Z,99109.00
2023-04-28T18:43:58.292Z,99101.66
2023-04-28T18:46:29.518Z,99098.63
2023-04-28T18:48:56.540Z,99098.09
2023-04-28T18:51:23.232Z,99096.69
2023-04-28T18:53:50.037Z,99107.78
2023-04-28T18:56:17.326Z,99111.84
2023-04-28T18:58:44.041Z,99103.16
2023-04-28T19:01:17.329Z,99103.25
2023-04-28T19:03:44.875Z,99106.16
2023-04-28T19:06:12.112Z,99110.25
2023-04-28T19:08:39.249Z,99115.53
2023-04-28T19:11:09.622Z,99113.16
2023-04-28T19:13:37.532Z,99124.97
2023-04-28T19:16:04.820Z,99123.09
2023-04-28T19:18:32.380Z,99120.09
2023-04-28T19:21:03.093Z,99128.00
2023-04-28T19:23:30.538Z,99117.91
2023-04-28T19:25:58.513Z,99120.59
2023-04-28T19:28:29.027Z,99127.84
2023-04-28T19:30:57.269Z,99125.47
2023-04-28T19:33:27.774Z,99128.81
2023-04-28T19:35:54.864Z,99121.81
2023-04-28T19:38:23.203Z,99123.69
2023-04-28T19:40:51.030Z,99114.56
2023-04-28T19:43:18.271Z,99101.44
2023-04-28T19:45:46.768Z,99092.25
2023-04-28T19:48:14.663Z,99087.47
2023-04-28T19:50:42.286Z,99087.78
2023-04-28T19:53:11.867Z,99111.06
2023-04-28T19:55:38.820Z,99114.03
2023-04-28T19:58:06.955Z,99104.56
2023-04-28T20:00:34.155Z,99110.25
2023-04-28T20:03:01.040Z,99094.94
2023-04-28T20:05:28.928Z,99087.38
2023-04-28T20:07:56.479Z,99096.56
2023-04-28T20:10:23.907Z,99097.06
2023-04-28T20:12:50.841Z,99101.63
2023-04-28T20:15:18.517Z,99098.72
2023-04-28T20:17:46.278Z,99097.81
2023-04-28T20:20:13.437Z,99097.00
2023-04-28T20:22:41.203Z,99092.66
2023-04-28T20:25:10.382Z,99106.59
2023-04-28T20:27:37.226Z,99098.03
2023-04-28T20:30:04.665Z,99102.19
2023-04-28T20:32:31.346Z,99109.94
2023-04-28T20:34:58.002Z,99117.19
2023-04-28T20:37:26.434Z,99117.19
2023-04-28T20:39:53.464Z,99117.81
2023-04-28T20:42:20.195Z,99115.13
2023-04-28T20:44:46.807Z,99121.59
2023-04-28T20:47:13.974Z,99122.16
2023-04-28T20:49:40.664Z,99124.00
2023-04-28T20:52:07.334Z,99118.63
2023-04-28T20:54:36.037Z,99117.34
2023-04-28T20:57:04.801Z,99110.13
2023-04-28T20:59:32.739Z,99110.34
2023-04-28T21:01:59.805Z,99107.66
2023-04-28T21:04:26.759Z,99101.97
2023-04-28T21:06:53.477Z,99098.94
2023-04-28T21:09:20.890Z,99107.81
2023-04-28T21:11:48.104Z,99109.44
2023-04-28T21:14:15.445Z,99113.28
2023-04-28T21:16:43.573Z,99110.91
2023-04-28T21:19:10.912Z,99096.69
2023-04-28T21:21:40.158Z,99095.84
2023-04-28T21:24:08.266Z,99093.66
2023-04-28T21:26:35.993Z,99091.53
2023-04-28T21:29:02.940Z,99083.97
2023-04-28T21:31:30.758Z,99085.59
2023-04-28T21:33:57.646Z,99079.97
2023-04-28T21:36:24.390Z,99079.38
2023-04-28T21:38:51.063Z,99086.66
2023-04-28T21:41:17.799Z,99089.09
2023-04-28T21:43:44.491Z,99084.75
2023-04-28T21:46:11.497Z,99075.91
2023-04-28T21:48:38.613Z,99096.91
2023-04-28T21:51:05.569Z,99090.13
2023-04-28T21:53:32.325Z,99096.91
2023-04-28T21:55:59.099Z,99097.16
2023-04-28T21:58:25.713Z,99106.84
2023-04-28T22:00:52.490Z,99108.16
2023-04-28T22:03:19.878Z,99116.78
2023-04-28T22:05:46.946Z,99115.22
2023-04-28T22:08:14.664Z,99113.94
2023-04-28T22:10:45.446Z,99097.81
2023-04-28T22:13:12.969Z,99101.78
2023-04-28T22:15:39.741Z,99094.22
2023-04-28T22:18:07.814Z,99094.72
2023-04-28T22:20:34.502Z,99100.09
2023-04-28T22:23:01.182Z,99105.78
2023-04-28T22:25:27.826Z,99098.56
2023-04-28T22:27:54.507Z,99099.91
2023-04-28T22:30:25.818Z,99096.69
2023-04-28T22:32:53.061Z,99099.38
2023-04-28T22:35:19.871Z,99096.41
2023-04-28T22:37:46.632Z,99091.31
2023-04-28T22:40:13.904Z,99086.72
2023-04-28T22:42:41.742Z,99091.63
2023-04-28T22:45:10.250Z,99092.09
2023-04-28T22:47:38.614Z,99086.72
2023-04-28T22:50:06.489Z,99085.25
2023-04-28T22:52:34.105Z,99091.13
2023-04-28T22:55:00.948Z,99092.28
2023-04-28T22:57:27.855Z,99086.31
2023-04-28T22:59:55.001Z,99083.81
2023-04-28T23:02:22.816Z,99079.06
2023-04-28T23:04:50.031Z,99087.41
2023-04-28T23:07:17.065Z,99085.75
2023-04-28T23:09:43.735Z,99085.41
2023-04-28T23:12:10.450Z,99077.13
2023-04-28T23:14:37.182Z,99078.75
2023-04-28T23:17:03.872Z,99080.63
2023-04-28T23:19:30.574Z,99073.16
2023-04-28T23:21:58.091Z,99073.47
2023-04-28T23:24:26.634Z,99065.41
2023-04-28T23:26:53.284Z,99066.38
2023-04-28T23:29:19.850Z,99059.22
2023-04-28T23:31:52.393Z,99068.59
2023-04-28T23:34:19.348Z,99062.13
2023-04-28T23:36:45.963Z,99059.13
2023-04-28T23:39:12.648Z,99058.09
2023-04-28T23:41:39.292Z,99051.38
2023-04-28T23:44:05.951Z,99062.94
2023-04-28T23:46:33.927Z,99057.59
2023-04-28T23:49:00.765Z,99057.91
2023-04-28T23:51:27.375Z,99060.84
2023-04-28T23:53:54.023Z,99058.72
2023-04-28T23:56:20.772Z,99068.59
2023-04-28T23:58:47.474Z,99066.16
